sensor_id;sensor_type;location;lat;lon;timestamp;pressure;altitude;pressure_sealevel;temperature;humidity
25080;BME280;13071;48.868;9.996;2022-12-29T00:01:23;96138.53;;;5.66;88.62
25080;BME280;13071;48.868;9.996;2022-12-29T00:03:50;96134.50;;;5.77;87.94
25080;BME280;13071;48.868;9.996;2022-12-29T00:06:16;96126.50;;;5.63;88.82
25080;BME280;13071;48.868;9.996;2022-12-29T00:08:43;96132.34;;;5.57;88.74
25080;BME280;13071;48.868;9.996;2022-12-29T00:11:12;96127.44;;;5.59;88.44
25080;BME280;13071;48.868;9.996;2022-12-29T00:13:39;96130.75;;;5.56;88.36
25080;BME280;13071;48.868;9.996;2022-12-29T00:16:24;96118.44;;;5.55;89.05
25080;BME280;13071;48.868;9.996;2022-12-29T00:18:51;96126.78;;;5.53;89.31
25080;BME280;13071;48.868;9.996;2022-12-29T00:21:20;96128.22;;;5.51;89.50
25080;BME280;13071;48.868;9.996;2022-12-29T00:24:05;96131.69;;;5.51;89.67
25080;BME280;13071;48.868;9.996;2022-12-29T00:26:53;96129.00;;;5.51;90.07
25080;BME280;13071;48.868;9.996;2022-12-29T00:29:38;96119.41;;;5.59;89.53
25080;BME280;13071;48.868;9.996;2022-12-29T00:32:22;96122.72;;;5.64;89.84
25080;BME280;13071;48.868;9.996;2022-12-29T00:35:03;96111.19;;;5.64;90.01
25080;BME280;13071;48.868;9.996;2022-12-29T00:37:37;96110.75;;;5.71;89.84
25080;BME280;13071;48.868;9.996;2022-12-29T00:40:22;96111.56;;;5.71;90.24
25080;BME280;13071;48.868;9.996;2022-12-29T00:43:07;96098.94;;;5.72;90.36
25080;BME280;13071;48.868;9.996;2022-12-29T00:45:51;96109.53;;;5.77;90.61
25080;BME280;13071;48.868;9.996;2022-12-29T00:48:18;96098.00;;;5.76;90.67
25080;BME280;13071;48.868;9.996;2022-12-29T00:51:05;96097.06;;;5.81;91.11
25080;BME280;13071;48.868;9.996;2022-12-29T00:53:31;96094.81;;;5.83;91.29
25080;BME280;13071;48.868;9.996;2022-12-29T00:55:58;96098.38;;;5.92;90.63
25080;BME280;13071;48.868;9.996;2022-12-29T00:58:28;96098.25;;;5.97;90.91
25080;BME280;13071;48.868;9.996;2022-12-29T01:01:01;96103.44;;;6.02;90.67
25080;BME280;13071;48.868;9.996;2022-12-29T01:03:27;96099.03;;;6.06;91.02
25080;BME280;13071;48.868;9.996;2022-12-29T01:05:54;96101.59;;;6.11;90.57
25080;BME280;13071;48.868;9.996;2022-12-29T01:08:21;96096.50;;;6.10;91.61
25080;BME280;13071;48.868;9.996;2022-12-29T01:10:57;96096.00;;;5.99;92.85
25080;BME280;13071;48.868;9.996;2022-12-29T01:13:23;96095.88;;;6.13;92.03
25080;BME280;13071;48.868;9.996;2022-12-29T01:15:51;96096.53;;;6.18;91.40
25080;BME280;13071;48.868;9.996;2022-12-29T01:18:18;96079.00;;;6.21;90.37
25080;BME280;13071;48.868;9.996;2022-12-29T01:20:45;96080.09;;;6.28;89.79
25080;BME280;13071;48.868;9.996;2022-12-29T01:23:11;96078.19;;;6.37;89.50
25080;BME280;13071;48.868;9.996;2022-12-29T01:25:38;96083.13;;;6.35;89.22
25080;BME280;13071;48.868;9.996;2022-12-29T01:28:05;96076.94;;;6.35;89.54
25080;BME280;13071;48.868;9.996;2022-12-29T01:30:32;96081.69;;;6.38;89.83
25080;BME280;13071;48.868;9.996;2022-12-29T01:33:00;96087.53;;;6.40;89.58
25080;BME280;13071;48.868;9.996;2022-12-29T01:35:26;96083.25;;;6.47;88.88
25080;BME280;13071;48.868;9.996;2022-12-29T01:37:53;96093.41;;;6.50;89.50
25080;BME280;13071;48.868;9.996;2022-12-29T01:40:20;96089.44;;;6.65;87.55
25080;BME280;13071;48.868;9.996;2022-12-29T01:42:46;96083.72;;;6.58;88.22
25080;BME280;13071;48.868;9.996;2022-12-29T01:45:13;96097.47;;;6.57;87.89
25080;BME280;13071;48.868;9.996;2022-12-29T01:47:43;96091.00;;;6.75;87.30
25080;BME280;13071;48.868;9.996;2022-12-29T01:50:14;96086.25;;;6.72;87.60
25080;BME280;13071;48.868;9.996;2022-12-29T01:52:47;96091.94;;;6.79;87.30
25080;BME280;13071;48.868;9.996;2022-12-29T01:55:17;96097.03;;;6.80;86.43
25080;BME280;13071;48.868;9.996;2022-12-29T01:57:47;96088.16;;;6.71;87.30
25080;BME280;13071;48.868;9.996;2022-12-29T02:00:16;96080.56;;;6.73;87.14
25080;BME280;13071;48.868;9.996;2022-12-29T02:02:46;96092.59;;;6.67;87.40
25080;BME280;13071;48.868;9.996;2022-12-29T02:05:19;96087.38;;;6.71;86.99
25080;BME280;13071;48.868;9.996;2022-12-29T02:07:48;96082.63;;;6.68;87.38
25080;BME280;13071;48.868;9.996;2022-12-29T02:10:16;96079.31;;;6.71;87.05
25080;BME280;13071;48.868;9.996;2022-12-29T02:12:45;96087.66;;;6.78;86.46
25080;BME280;13071;48.868;9.996;2022-12-29T02:15:13;96081.03;;;6.75;86.42
25080;BME280;13071;48.868;9.996;2022-12-29T02:17:55;96082.47;;;6.73;86.43
25080;BME280;13071;48.868;9.996;2022-12-29T02:21:05;96081.66;;;6.72;87.05
25080;BME280;13071;48.868;9.996;2022-12-29T02:24:02;96080.41;;;6.78;86.41
25080;BME280;13071;48.868;9.996;2022-12-29T02:26:47;96081.50;;;6.77;86.32
25080;BME280;13071;48.868;9.996;2022-12-29T02:29:41;96078.97;;;6.72;86.30
25080;BME280;13071;48.868;9.996;2022-12-29T02:32:19;96076.28;;;6.72;86.80
25080;BME280;13071;48.868;9.996;2022-12-29T02:34:57;96081.34;;;6.74;87.27
25080;BME280;13071;48.868;9.996;2022-12-29T02:37:32;96075.03;;;6.78;87.00
25080;BME280;13071;48.868;9.996;2022-12-29T02:40:07;96069.31;;;6.88;85.45
25080;BME280;13071;48.868;9.996;2022-12-29T02:42:44;96069.78;;;6.99;85.57
25080;BME280;13071;48.868;9.996;2022-12-29T02:45:15;96065.97;;;6.91;85.86
25080;BME280;13071;48.868;9.996;2022-12-29T02:47:50;96061.25;;;6.88;85.78
25080;BME280;13071;48.868;9.996;2022-12-29T02:50:22;96057.75;;;6.88;85.71
25080;BME280;13071;48.868;9.996;2022-12-29T02:52:51;96058.88;;;6.87;86.30
25080;BME280;13071;48.868;9.996;2022-12-29T02:55:21;96057.91;;;6.83;86.04
25080;BME280;13071;48.868;9.996;2022-12-29T02:57:46;96053.81;;;6.85;85.90
25080;BME280;13071;48.868;9.996;2022-12-29T03:00:15;96057.75;;;6.88;85.58
25080;BME280;13071;48.868;9.996;2022-12-29T03:03:06;96051.91;;;6.77;86.20
25080;BME280;13071;48.868;9.996;2022-12-29T03:05:57;96056.50;;;6.77;86.40
25080;BME280;13071;48.868;9.996;2022-12-29T03:08:35;96060.16;;;6.72;85.67
25080;BME280;13071;48.868;9.996;2022-12-29T03:11:08;96059.03;;;6.73;86.43
25080;BME280;13071;48.868;9.996;2022-12-29T03:14:01;96050.19;;;6.73;85.97
25080;BME280;13071;48.868;9.996;2022-12-29T03:16:48;96037.84;;;6.80;85.81
25080;BME280;13071;48.868;9.996;2022-12-29T03:19:20;96046.09;;;6.75;85.16
25080;BME280;13071;48.868;9.996;2022-12-29T03:21:54;96030.91;;;6.71;85.90
25080;BME280;13071;48.868;9.996;2022-12-29T03:24:42;96039.13;;;6.74;85.70
25080;BME280;13071;48.868;9.996;2022-12-29T03:27:13;96035.94;;;6.72;85.69
25080;BME280;13071;48.868;9.996;2022-12-29T03:29:45;96035.31;;;6.67;85.74
25080;BME280;13071;48.868;9.996;2022-12-29T03:32:19;96040.69;;;6.67;86.59
25080;BME280;13071;48.868;9.996;2022-12-29T03:34:49;96043.72;;;6.74;85.78
25080;BME280;13071;48.868;9.996;2022-12-29T03:37:20;96048.28;;;6.73;85.42
25080;BME280;13071;48.868;9.996;2022-12-29T03:39:47;96043.72;;;6.74;85.78
25080;BME280;13071;48.868;9.996;2022-12-29T03:42:17;96043.06;;;6.68;86.56
25080;BME280;13071;48.868;9.996;2022-12-29T03:44:45;96043.88;;;6.69;86.49
25080;BME280;13071;48.868;9.996;2022-12-29T03:47:14;96033.13;;;6.69;86.48
25080;BME280;13071;48.868;9.996;2022-12-29T03:49:41;96038.19;;;6.70;86.97
25080;BME280;13071;48.868;9.996;2022-12-29T03:52:09;96036.75;;;6.73;86.87
25080;BME280;13071;48.868;9.996;2022-12-29T03:54:35;96033.75;;;6.74;87.20
25080;BME280;13071;48.868;9.996;2022-12-29T03:57:03;96041.97;;;6.69;86.76
25080;BME280;13071;48.868;9.996;2022-12-29T03:59:30;96030.75;;;6.67;86.69
25080;BME280;13071;48.868;9.996;2022-12-29T04:01:57;96030.56;;;6.72;85.80
25080;BME280;13071;48.868;9.996;2022-12-29T04:04:23;96017.31;;;6.59;85.87
25080;BME280;13071;48.868;9.996;2022-12-29T04:06:50;96034.88;;;6.47;85.60
25080;BME280;13071;48.868;9.996;2022-12-29T04:09:18;96032.66;;;6.58;84.74
25080;BME280;13071;48.868;9.996;2022-12-29T04:11:44;96030.28;;;6.65;84.76
25080;BME280;13071;48.868;9.996;2022-12-29T04:14:11;96035.81;;;6.69;85.05
25080;BME280;13071;48.868;9.996;2022-12-29T04:16:37;96032.00;;;6.70;84.93
25080;BME280;13071;48.868;9.996;2022-12-29T04:19:05;96024.22;;;6.85;84.72
25080;BME280;13071;48.868;9.996;2022-12-29T04:21:32;96024.19;;;7.03;83.29
25080;BME280;13071;48.868;9.996;2022-12-29T04:23:59;96023.38;;;7.02;84.05
25080;BME280;13071;48.868;9.996;2022-12-29T04:26:26;96038.28;;;6.91;83.55
25080;BME280;13071;48.868;9.996;2022-12-29T04:28:53;96034.53;;;6.75;84.36
25080;BME280;13071;48.868;9.996;2022-12-29T04:31:19;96036.94;;;6.50;84.92
25080;BME280;13071;48.868;9.996;2022-12-29T04:33:46;96036.13;;;6.41;85.88
25080;BME280;13071;48.868;9.996;2022-12-29T04:36:13;96029.34;;;6.44;85.26
25080;BME280;13071;48.868;9.996;2022-12-29T04:38:39;96026.03;;;6.30;85.36
25080;BME280;13071;48.868;9.996;2022-12-29T04:41:06;96028.72;;;6.30;85.80
25080;BME280;13071;48.868;9.996;2022-12-29T04:43:34;96035.66;;;6.22;85.32
25080;BME280;13071;48.868;9.996;2022-12-29T04:46:01;96039.16;;;6.23;85.51
25080;BME280;13071;48.868;9.996;2022-12-29T04:48:28;96034.09;;;6.21;84.95
25080;BME280;13071;48.868;9.996;2022-12-29T04:50:54;96043.28;;;6.20;85.19
25080;BME280;13071;48.868;9.996;2022-12-29T04:53:21;96043.13;;;6.17;85.07
25080;BME280;13071;48.868;9.996;2022-12-29T04:55:49;96051.34;;;6.12;85.06
25080;BME280;13071;48.868;9.996;2022-12-29T04:58:16;96050.19;;;6.04;84.94
25080;BME280;13071;48.868;9.996;2022-12-29T05:00:44;96048.16;;;6.10;84.75
25080;BME280;13071;48.868;9.996;2022-12-29T05:03:10;96055.28;;;6.14;84.15
25080;BME280;13071;48.868;9.996;2022-12-29T05:05:37;96054.81;;;6.21;84.20
25080;BME280;13071;48.868;9.996;2022-12-29T05:08:04;96051.31;;;6.20;83.46
25080;BME280;13071;48.868;9.996;2022-12-29T05:10:31;96042.63;;;6.23;84.19
25080;BME280;13071;48.868;9.996;2022-12-29T05:12:57;96039.16;;;6.14;83.57
25080;BME280;13071;48.868;9.996;2022-12-29T05:15:24;96043.41;;;6.15;83.69
25080;BME280;13071;48.868;9.996;2022-12-29T05:17:52;96039.00;;;6.19;83.51
25080;BME280;13071;48.868;9.996;2022-12-29T05:20:19;96030.94;;;6.11;83.36
25080;BME280;13071;48.868;9.996;2022-12-29T05:22:46;96037.56;;;6.13;83.87
25080;BME280;13071;48.868;9.996;2022-12-29T05:25:12;96035.66;;;6.05;84.50
25080;BME280;13071;48.868;9.996;2022-12-29T05:27:39;96049.25;;;6.00;84.31
25080;BME280;13071;48.868;9.996;2022-12-29T05:30:06;96042.59;;;5.97;84.86
25080;BME280;13071;48.868;9.996;2022-12-29T05:32:34;96048.91;;;5.93;85.48
25080;BME280;13071;48.868;9.996;2022-12-29T05:35:02;96040.50;;;5.86;85.95
25080;BME280;13071;48.868;9.996;2022-12-29T05:37:29;96035.94;;;5.86;85.61
25080;BME280;13071;48.868;9.996;2022-12-29T05:39:55;96031.88;;;5.49;87.64
25080;BME280;13071;48.868;9.996;2022-12-29T05:42:22;96039.50;;;5.16;89.54
25080;BME280;13071;48.868;9.996;2022-12-29T05:44:48;96039.66;;;5.11;90.05
25080;BME280;13071;48.868;9.996;2022-12-29T05:47:18;96038.75;;;4.94;90.57
25080;BME280;13071;48.868;9.996;2022-12-29T05:49:45;96046.72;;;5.07;89.68
25080;BME280;13071;48.868;9.996;2022-12-29T05:52:13;96040.69;;;4.93;90.25
25080;BME280;13071;48.868;9.996;2022-12-29T05:54:39;96037.09;;;4.75;91.61
25080;BME280;13071;48.868;9.996;2022-12-29T05:57:06;96040.28;;;4.77;92.09
25080;BME280;13071;48.868;9.996;2022-12-29T05:59:33;96039.66;;;4.81;92.10
25080;BME280;13071;48.868;9.996;2022-12-29T06:01:59;96047.97;;;4.79;91.72
25080;BME280;13071;48.868;9.996;2022-12-29T06:04:26;96026.16;;;4.94;91.15
25080;BME280;13071;48.868;9.996;2022-12-29T06:06:52;96019.94;;;4.85;91.78
25080;BME280;13071;48.868;9.996;2022-12-29T06:09:20;96039.22;;;4.87;90.82
25080;BME280;13071;48.868;9.996;2022-12-29T06:11:47;96042.63;;;4.79;91.30
25080;BME280;13071;48.868;9.996;2022-12-29T06:14:13;96048.91;;;4.74;91.31
25080;BME280;13071;48.868;9.996;2022-12-29T06:16:40;96046.34;;;4.69;91.54
25080;BME280;13071;48.868;9.996;2022-12-29T06:19:07;96045.38;;;4.65;91.70
25080;BME280;13071;48.868;9.996;2022-12-29T06:21:33;96039.69;;;4.58;91.82
25080;BME280;13071;48.868;9.996;2022-12-29T06:24:00;96034.78;;;4.60;91.97
25080;BME280;13071;48.868;9.996;2022-12-29T06:26:28;96040.16;;;4.60;91.65
25080;BME280;13071;48.868;9.996;2022-12-29T06:28:55;96042.28;;;4.72;91.41
25080;BME280;13071;48.868;9.996;2022-12-29T06:31:21;96035.16;;;4.67;90.79
25080;BME280;13071;48.868;9.996;2022-12-29T06:33:48;96040.88;;;4.74;90.38
25080;BME280;13071;48.868;9.996;2022-12-29T06:36:15;96033.88;;;4.65;90.76
25080;BME280;13071;48.868;9.996;2022-12-29T06:38:41;96034.63;;;4.57;91.13
25080;BME280;13071;48.868;9.996;2022-12-29T06:41:08;96025.31;;;4.85;90.77
25080;BME280;13071;48.868;9.996;2022-12-29T06:43:36;96023.47;;;4.63;90.95
25080;BME280;13071;48.868;9.996;2022-12-29T06:46:03;96001.97;;;4.55;92.19
25080;BME280;13071;48.868;9.996;2022-12-29T06:48:30;96016.41;;;4.67;91.91
25080;BME280;13071;48.868;9.996;2022-12-29T06:50:56;96029.78;;;4.98;90.15
25080;BME280;13071;48.868;9.996;2022-12-29T06:53:23;96022.66;;;4.94;90.16
25080;BME280;13071;48.868;9.996;2022-12-29T06:55:49;96032.00;;;4.96;90.24
25080;BME280;13071;48.868;9.996;2022-12-29T06:58:16;96034.69;;;4.96;89.76
25080;BME280;13071;48.868;9.996;2022-12-29T07:00:44;96032.78;;;4.97;89.53
25080;BME280;13071;48.868;9.996;2022-12-29T07:03:11;96035.69;;;5.09;88.85
25080;BME280;13071;48.868;9.996;2022-12-29T07:05:37;96031.06;;;5.01;88.88
25080;BME280;13071;48.868;9.996;2022-12-29T07:08:04;96037.53;;;5.00;89.07
25080;BME280;13071;48.868;9.996;2022-12-29T07:10:31;96040.72;;;4.79;89.38
25080;BME280;13071;48.868;9.996;2022-12-29T07:12:57;96046.75;;;4.85;88.90
25080;BME280;13071;48.868;9.996;2022-12-29T07:15:24;96040.94;;;4.83;88.65
25080;BME280;13071;48.868;9.996;2022-12-29T07:17:52;96057.03;;;4.83;89.19
25080;BME280;13071;48.868;9.996;2022-12-29T07:20:18;96049.94;;;4.87;89.48
25080;BME280;13071;48.868;9.996;2022-12-29T07:22:45;96048.19;;;4.83;89.61
25080;BME280;13071;48.868;9.996;2022-12-29T07:25:12;96047.72;;;4.89;89.02
25080;BME280;13071;48.868;9.996;2022-12-29T07:27:39;96040.28;;;4.77;90.02
25080;BME280;13071;48.868;9.996;2022-12-29T07:30:07;96032.00;;;4.96;88.70
25080;BME280;13071;48.868;9.996;2022-12-29T07:32:34;96033.41;;;4.94;89.15
25080;BME280;13071;48.868;9.996;2022-12-29T07:35:02;96030.22;;;4.83;89.78
25080;BME280;13071;48.868;9.996;2022-12-29T07:37:29;96035.16;;;4.98;89.76
25080;BME280;13071;48.868;9.996;2022-12-29T07:39:55;96036.84;;;5.16;89.06
25080;BME280;13071;48.868;9.996;2022-12-29T07:42:22;96035.25;;;5.15;89.14
25080;BME280;13071;48.868;9.996;2022-12-29T07:44:48;96033.25;;;5.30;88.41
25080;BME280;13071;48.868;9.996;2022-12-29T07:47:15;96035.22;;;5.07;90.52
25080;BME280;13071;48.868;9.996;2022-12-29T07:49:42;96037.69;;;5.43;89.18
25080;BME280;13071;48.868;9.996;2022-12-29T07:52:10;96045.28;;;5.32;89.67
25080;BME280;13071;48.868;9.996;2022-12-29T07:54:36;96037.28;;;5.18;90.40
25080;BME280;13071;48.868;9.996;2022-12-29T07:57:03;96038.59;;;5.21;90.90
25080;BME280;13071;48.868;9.996;2022-12-29T07:59:30;96042.06;;;5.21;91.60
25080;BME280;13071;48.868;9.996;2022-12-29T08:01:56;96042.72;;;5.27;91.43
25080;BME280;13071;48.868;9.996;2022-12-29T08:04:23;96043.03;;;5.34;91.57
25080;BME280;13071;48.868;9.996;2022-12-29T08:06:49;96044.50;;;5.40;91.12
25080;BME280;13071;48.868;9.996;2022-12-29T08:09:17;96052.16;;;5.73;90.21
25080;BME280;13071;48.868;9.996;2022-12-29T08:11:44;96051.34;;;5.63;90.42
25080;BME280;13071;48.868;9.996;2022-12-29T08:14:10;96046.47;;;5.65;90.70
25080;BME280;13071;48.868;9.996;2022-12-29T08:16:37;96047.63;;;5.82;90.52
25080;BME280;13071;48.868;9.996;2022-12-29T08:19:03;96056.38;;;6.04;89.13
25080;BME280;13071;48.868;9.996;2022-12-29T08:21:31;96055.75;;;6.16;88.91
25080;BME280;13071;48.868;9.996;2022-12-29T08:23:57;96066.34;;;6.30;89.22
25080;BME280;13071;48.868;9.996;2022-12-29T08:26:25;96051.66;;;6.44;88.62
25080;BME280;13071;48.868;9.996;2022-12-29T08:28:52;96069.97;;;6.68;87.90
25080;BME280;13071;48.868;9.996;2022-12-29T08:31:20;96063.47;;;6.78;88.50
25080;BME280;13071;48.868;9.996;2022-12-29T08:33:46;96057.91;;;6.91;87.72
25080;BME280;13071;48.868;9.996;2022-12-29T08:36:13;96060.25;;;7.02;88.11
25080;BME280;13071;48.868;9.996;2022-12-29T08:38:40;96069.41;;;7.18;87.62
25080;BME280;13071;48.868;9.996;2022-12-29T08:41:07;96060.84;;;7.24;86.83
25080;BME280;13071;48.868;9.996;2022-12-29T08:43:35;96059.53;;;7.39;86.98
25080;BME280;13071;48.868;9.996;2022-12-29T08:46:01;96059.63;;;7.51;87.17
25080;BME280;13071;48.868;9.996;2022-12-29T08:48:28;96054.00;;;7.65;86.73
25080;BME280;13071;48.868;9.996;2022-12-29T08:50:54;96066.97;;;7.71;86.30
25080;BME280;13071;48.868;9.996;2022-12-29T08:53:21;96061.03;;;7.87;85.64
25080;BME280;13071;48.868;9.996;2022-12-29T08:55:55;96053.72;;;7.87;85.59
25080;BME280;13071;48.868;9.996;2022-12-29T08:58:22;96057.03;;;7.93;85.44
25080;BME280;13071;48.868;9.996;2022-12-29T09:00:51;96068.34;;;8.07;85.24
25080;BME280;13071;48.868;9.996;2022-12-29T09:03:18;96061.38;;;8.06;85.14
25080;BME280;13071;48.868;9.996;2022-12-29T09:05:47;96064.69;;;8.11;85.25
25080;BME280;13071;48.868;9.996;2022-12-29T09:08:14;96062.47;;;8.13;85.04
25080;BME280;13071;48.868;9.996;2022-12-29T09:10:40;96058.97;;;8.13;85.01
25080;BME280;13071;48.868;9.996;2022-12-29T09:13:07;96061.78;;;8.16;84.65
25080;BME280;13071;48.868;9.996;2022-12-29T09:15:33;96041.34;;;8.15;85.08
25080;BME280;13071;48.868;9.996;2022-12-29T09:18:01;96044.75;;;8.24;84.98
25080;BME280;13071;48.868;9.996;2022-12-29T09:20:28;96048.47;;;8.41;83.88
25080;BME280;13071;48.868;9.996;2022-12-29T09:22:55;96056.84;;;8.48;84.90
25080;BME280;13071;48.868;9.996;2022-12-29T09:25:21;96053.25;;;8.77;84.10
25080;BME280;13071;48.868;9.996;2022-12-29T09:27:49;96044.59;;;9.16;82.32
25080;BME280;13071;48.868;9.996;2022-12-29T09:30:17;96048.91;;;9.41;79.74
25080;BME280;13071;48.868;9.996;2022-12-29T09:32:44;96046.00;;;9.71;78.15
25080;BME280;13071;48.868;9.996;2022-12-29T09:35:12;96053.44;;;9.86;77.03
25080;BME280;13071;48.868;9.996;2022-12-29T09:37:39;96043.63;;;10.06;76.48
25080;BME280;13071;48.868;9.996;2022-12-29T09:40:09;96053.75;;;10.09;75.81
25080;BME280;13071;48.868;9.996;2022-12-29T09:42:48;96050.47;;;10.27;74.69
25080;BME280;13071;48.868;9.996;2022-12-29T09:45:27;96054.19;;;10.35;73.52
25080;BME280;13071;48.868;9.996;2022-12-29T09:47:55;96052.38;;;10.27;74.35
25080;BME280;13071;48.868;9.996;2022-12-29T09:50:24;96051.91;;;10.37;73.89
25080;BME280;13071;48.868;9.996;2022-12-29T09:52:59;96056.91;;;10.23;73.74
25080;BME280;13071;48.868;9.996;2022-12-29T09:55:36;96054.84;;;10.32;73.90
25080;BME280;13071;48.868;9.996;2022-12-29T09:58:06;96039.34;;;10.05;75.91
25080;BME280;13071;48.868;9.996;2022-12-29T10:00:37;96048.78;;;10.35;73.98
25080;BME280;13071;48.868;9.996;2022-12-29T10:03:13;96049.09;;;10.33;73.44
25080;BME280;13071;48.868;9.996;2022-12-29T10:05:46;96052.28;;;10.23;74.88
25080;BME280;13071;48.868;9.996;2022-12-29T10:08:22;96053.97;;;10.28;74.56
25080;BME280;13071;48.868;9.996;2022-12-29T10:10:54;96047.34;;;10.25;74.53
25080;BME280;13071;48.868;9.996;2022-12-29T10:13:30;96049.47;;;10.20;75.25
25080;BME280;13071;48.868;9.996;2022-12-29T10:16:05;96052.84;;;10.29;75.06
25080;BME280;13071;48.868;9.996;2022-12-29T10:18:52;96054.84;;;10.32;74.96
25080;BME280;13071;48.868;9.996;2022-12-29T10:21:28;96041.53;;;10.39;74.87
25080;BME280;13071;48.868;9.996;2022-12-29T10:24:02;96040.06;;;10.42;74.71
25080;BME280;13071;48.868;9.996;2022-12-29T10:26:35;96037.59;;;10.36;75.59
25080;BME280;13071;48.868;9.996;2022-12-29T10:29:04;96042.44;;;10.43;75.24
25080;BME280;13071;48.868;9.996;2022-12-29T10:31:34;96037.28;;;10.66;74.74
25080;BME280;13071;48.868;9.996;2022-12-29T10:34:07;96044.22;;;10.79;75.53
25080;BME280;13071;48.868;9.996;2022-12-29T10:36:43;96040.19;;;10.73;74.93
25080;BME280;13071;48.868;9.996;2022-12-29T10:39:16;96047.72;;;10.79;74.86
25080;BME280;13071;48.868;9.996;2022-12-29T10:41:49;96044.53;;;10.90;74.55
25080;BME280;13071;48.868;9.996;2022-12-29T10:44:18;96048.34;;;10.89;74.80
25080;BME280;13071;48.868;9.996;2022-12-29T10:46:53;96045.69;;;10.76;74.97
25080;BME280;13071;48.868;9.996;2022-12-29T10:49:21;96045.81;;;10.80;74.75
25080;BME280;13071;48.868;9.996;2022-12-29T10:51:50;96040.50;;;10.83;74.47
25080;BME280;13071;48.868;9.996;2022-12-29T10:54:21;96044.03;;;10.72;75.14
25080;BME280;13071;48.868;9.996;2022-12-29T10:56:52;96049.56;;;10.75;74.79
25080;BME280;13071;48.868;9.996;2022-12-29T10:59:22;96038.13;;;10.82;75.44
25080;BME280;13071;48.868;9.996;2022-12-29T11:01:58;96044.16;;;10.91;75.71
25080;BME280;13071;48.868;9.996;2022-12-29T11:04:35;96049.81;;;10.86;75.16
25080;BME280;13071;48.868;9.996;2022-12-29T11:07:07;96049.94;;;11.05;74.74
25080;BME280;13071;48.868;9.996;2022-12-29T11:09:36;96041.75;;;11.02;74.27
25080;BME280;13071;48.868;9.996;2022-12-29T11:12:18;96035.66;;;11.05;75.41
25080;BME280;13071;48.868;9.996;2022-12-29T11:14:45;96030.50;;;11.00;75.60
25080;BME280;13071;48.868;9.996;2022-12-29T11:17:15;96037.69;;;11.23;74.41
25080;BME280;13071;48.868;9.996;2022-12-29T11:19:42;96042.94;;;11.32;73.83
25080;BME280;13071;48.868;9.996;2022-12-29T11:22:20;96041.00;;;11.17;74.84
25080;BME280;13071;48.868;9.996;2022-12-29T11:24:48;96044.50;;;11.33;74.43
25080;BME280;13071;48.868;9.996;2022-12-29T11:27:17;96037.84;;;11.31;74.31
25080;BME280;13071;48.868;9.996;2022-12-29T11:29:45;96033.25;;;11.47;74.07
25080;BME280;13071;48.868;9.996;2022-12-29T11:32:12;96034.63;;;11.56;72.64
25080;BME280;13071;48.868;9.996;2022-12-29T11:34:43;96035.44;;;11.57;72.37
25080;BME280;13071;48.868;9.996;2022-12-29T11:37:12;96045.22;;;11.61;73.01
25080;BME280;13071;48.868;9.996;2022-12-29T11:39:43;96043.28;;;11.62;73.20
25080;BME280;13071;48.868;9.996;2022-12-29T11:42:15;96043.91;;;11.71;72.88
25080;BME280;13071;48.868;9.996;2022-12-29T11:44:44;96032.63;;;11.69;73.10
25080;BME280;13071;48.868;9.996;2022-12-29T11:47:20;96034.03;;;11.63;72.72
25080;BME280;13071;48.868;9.996;2022-12-29T11:49:49;96029.75;;;11.62;73.31
25080;BME280;13071;48.868;9.996;2022-12-29T11:52:21;96027.91;;;11.50;72.84
25080;BME280;13071;48.868;9.996;2022-12-29T11:54:50;96032.28;;;11.39;73.73
25080;BME280;13071;48.868;9.996;2022-12-29T11:57:19;96026.34;;;11.49;73.51
25080;BME280;13071;48.868;9.996;2022-12-29T11:59:49;96040.50;;;11.58;73.33
25080;BME280;13071;48.868;9.996;2022-12-29T12:02:40;96026.59;;;11.44;73.18
25080;BME280;13071;48.868;9.996;2022-12-29T12:05:17;96030.44;;;11.43;73.10
25080;BME280;13071;48.868;9.996;2022-12-29T12:07:46;96026.09;;;11.54;74.20
25080;BME280;13071;48.868;9.996;2022-12-29T12:10:21;96021.69;;;11.50;73.32
25080;BME280;13071;48.868;9.996;2022-12-29T12:12:53;96034.81;;;11.48;74.17
25080;BME280;13071;48.868;9.996;2022-12-29T12:15:25;96029.22;;;11.56;73.90
25080;BME280;13071;48.868;9.996;2022-12-29T12:17:59;96032.19;;;11.51;73.85
25080;BME280;13071;48.868;9.996;2022-12-29T12:20:38;96026.34;;;11.49;74.68
25080;BME280;13071;48.868;9.996;2022-12-29T12:23:14;96026.50;;;11.56;74.26
25080;BME280;13071;48.868;9.996;2022-12-29T12:25:54;96026.34;;;11.49;74.33
25080;BME280;13071;48.868;9.996;2022-12-29T12:28:28;96023.25;;;11.35;75.59
25080;BME280;13071;48.868;9.996;2022-12-29T12:30:57;96038.38;;;11.36;75.98
25080;BME280;13071;48.868;9.996;2022-12-29T12:33:29;96045.72;;;11.36;75.98
25080;BME280;13071;48.868;9.996;2022-12-29T12:36:22;96034.72;;;11.29;75.54
25080;BME280;13071;48.868;9.996;2022-12-29T12:38:54;96033.31;;;11.19;76.23
25080;BME280;13071;48.868;9.996;2022-12-29T12:41:31;96039.09;;;11.33;76.55
25080;BME280;13071;48.868;9.996;2022-12-29T12:44:09;96033.94;;;11.28;76.97
25080;BME280;13071;48.868;9.996;2022-12-29T12:46:57;96032.16;;;11.20;76.45
25080;BME280;13071;48.868;9.996;2022-12-29T12:49:39;96032.53;;;11.18;77.60
25080;BME280;13071;48.868;9.996;2022-12-29T12:52:18;96033.34;;;11.35;77.07
25080;BME280;13071;48.868;9.996;2022-12-29T12:54:58;96028.84;;;11.26;77.20
25080;BME280;13071;48.868;9.996;2022-12-29T12:57:40;96043.69;;;11.17;77.48
25080;BME280;13071;48.868;9.996;2022-12-29T13:00:12;96032.44;;;11.15;77.51
25080;BME280;13071;48.868;9.996;2022-12-29T13:02:52;96031.31;;;11.32;77.67
25080;BME280;13071;48.868;9.996;2022-12-29T13:05:33;96032.09;;;11.32;78.31
25080;BME280;13071;48.868;9.996;2022-12-29T13:11:14;96037.31;;;11.25;78.85
25080;BME280;13071;48.868;9.996;2022-12-29T13:13:56;96031.22;;;11.28;78.91
25080;BME280;13071;48.868;9.996;2022-12-29T13:16:29;96043.16;;;11.11;79.46
25080;BME280;13071;48.868;9.996;2022-12-29T13:19:03;96033.19;;;11.00;80.40
25080;BME280;13071;48.868;9.996;2022-12-29T13:21:44;96032.53;;;10.91;81.86
25080;BME280;13071;48.868;9.996;2022-12-29T13:24:16;96039.38;;;10.85;81.70
25080;BME280;13071;48.868;9.996;2022-12-29T13:26:49;96022.75;;;10.86;82.79
25080;BME280;13071;48.868;9.996;2022-12-29T13:29:23;96026.38;;;10.90;82.64